sensor_id;sensor_type;location;lat;lon;timestamp;P1;durP1;ratioP1;P2;durP2;ratioP2
20861;SDS011;10591;52.532;13.348;2023-03-23T00:00:39;6.03;;;2.80;;
20861;SDS011;10591;52.532;13.348;2023-03-23T00:03:09;3.00;;;2.70;;
20861;SDS011;10591;52.532;13.348;2023-03-23T00:05:39;3.60;;;2.60;;
20861;SDS011;10591;52.532;13.348;2023-03-23T00:08:09;2.83;;;2.40;;
20861;SDS011;10591;52.532;13.348;2023-03-23T00:10:40;3.25;;;2.83;;
20861;SDS011;10591;52.532;13.348;2023-03-23T00:13:09;3.15;;;2.85;;
20861;SDS011;10591;52.532;13.348;2023-03-23T00:15:40;5.22;;;3.27;;
20861;SDS011;10591;52.532;13.348;2023-03-23T00:18:10;3.52;;;2.95;;
20861;SDS011;10591;52.532;13.348;2023-03-23T00:20:41;3.15;;;2.60;;
20861;SDS011;10591;52.532;13.348;2023-03-23T00:23:11;4.08;;;3.10;;
20861;SDS011;10591;52.532;13.348;2023-03-23T00:25:44;5.50;;;3.50;;
20861;SDS011;10591;52.532;13.348;2023-03-23T00:28:17;3.25;;;2.60;;
20861;SDS011;10591;52.532;13.348;2023-03-23T00:30:48;3.65;;;2.47;;
20861;SDS011;10591;52.532;13.348;2023-03-23T00:33:19;3.80;;;2.60;;
20861;SDS011;10591;52.532;13.348;2023-03-23T00:35:48;4.83;;;3.30;;
20861;SDS011;10591;52.532;13.348;2023-03-23T00:38:21;3.60;;;3.25;;
20861;SDS011;10591;52.532;13.348;2023-03-23T00:40:52;3.58;;;2.85;;
20861;SDS011;10591;52.532;13.348;2023-03-23T00:43:21;3.47;;;3.17;;
20861;SDS011;10591;52.532;13.348;2023-03-23T00:45:52;3.08;;;2.62;;
20861;SDS011;10591;52.532;13.348;2023-03-23T00:48:24;3.50;;;2.90;;
20861;SDS011;10591;52.532;13.348;2023-03-23T00:50:54;4.65;;;2.70;;
20861;SDS011;10591;52.532;13.348;2023-03-23T00:53:24;4.17;;;2.85;;
20861;SDS011;10591;52.532;13.348;2023-03-23T00:55:53;4.17;;;3.77;;
20861;SDS011;10591;52.532;13.348;2023-03-23T00:58:24;3.83;;;2.83;;
20861;SDS011;10591;52.532;13.348;2023-03-23T01:00:53;2.60;;;2.40;;
20861;SDS011;10591;52.532;13.348;2023-03-23T01:03:25;4.47;;;2.80;;
20861;SDS011;10591;52.532;13.348;2023-03-23T01:05:57;4.08;;;3.35;;
20861;SDS011;10591;52.532;13.348;2023-03-23T01:08:26;3.52;;;2.70;;
20861;SDS011;10591;52.532;13.348;2023-03-23T01:11:04;3.65;;;2.70;;
20861;SDS011;10591;52.532;13.348;2023-03-23T01:13:35;2.70;;;2.50;;
20861;SDS011;10591;52.532;13.348;2023-03-23T01:16:04;3.00;;;2.70;;
20861;SDS011;10591;52.532;13.348;2023-03-23T01:18:34;3.20;;;2.60;;
20861;SDS011;10591;52.532;13.348;2023-03-23T01:21:05;4.22;;;3.02;;
20861;SDS011;10591;52.532;13.348;2023-03-23T01:23:38;3.10;;;2.80;;
20861;SDS011;10591;52.532;13.348;2023-03-23T01:26:09;2.80;;;2.60;;
20861;SDS011;10591;52.532;13.348;2023-03-23T01:28:41;3.50;;;3.20;;
20861;SDS011;10591;52.532;13.348;2023-03-23T01:31:15;3.22;;;2.75;;
20861;SDS011;10591;52.532;13.348;2023-03-23T01:33:47;3.12;;;2.83;;
20861;SDS011;10591;52.532;13.348;2023-03-23T01:36:23;4.62;;;2.95;;
20861;SDS011;10591;52.532;13.348;2023-03-23T01:38:57;3.60;;;2.95;;
20861;SDS011;10591;52.532;13.348;2023-03-23T01:41:29;2.95;;;2.75;;
20861;SDS011;10591;52.532;13.348;2023-03-23T01:44:03;3.00;;;2.70;;
20861;SDS011;10591;52.532;13.348;2023-03-23T01:46:35;3.12;;;2.83;;
20861;SDS011;10591;52.532;13.348;2023-03-23T01:49:16;3.80;;;2.50;;
20861;SDS011;10591;52.532;13.348;2023-03-23T01:51:50;3.17;;;2.90;;
20861;SDS011;10591;52.532;13.348;2023-03-23T01:54:17;3.00;;;2.70;;
20861;SDS011;10591;52.532;13.348;2023-03-23T01:56:54;2.90;;;2.60;;
20861;SDS011;10591;52.532;13.348;2023-03-23T01:59:24;3.40;;;2.60;;
20861;SDS011;10591;52.532;13.348;2023-03-23T02:01:56;3.50;;;2.90;;
20861;SDS011;10591;52.532;13.348;2023-03-23T02:04:28;3.10;;;2.80;;
20861;SDS011;10591;52.532;13.348;2023-03-23T02:06:59;2.77;;;2.50;;
20861;SDS011;10591;52.532;13.348;2023-03-23T02:09:29;3.08;;;2.83;;
20861;SDS011;10591;52.532;13.348;2023-03-23T02:11:59;4.47;;;3.20;;
20861;SDS011;10591;52.532;13.348;2023-03-23T02:14:31;3.80;;;2.65;;
20861;SDS011;10591;52.532;13.348;2023-03-23T02:33:55;3.55;;;2.70;;
20861;SDS011;10591;52.532;13.348;2023-03-23T02:36:34;6.03;;;3.00;;
20861;SDS011;10591;52.532;13.348;2023-03-23T02:39:14;4.05;;;2.60;;
20861;SDS011;10591;52.532;13.348;2023-03-23T02:41:52;3.52;;;2.62;;
20861;SDS011;10591;52.532;13.348;2023-03-23T02:44:37;2.98;;;2.52;;
20861;SDS011;10591;52.532;13.348;2023-03-23T02:47:11;4.00;;;3.02;;
20861;SDS011;10591;52.532;13.348;2023-03-23T02:49:42;2.90;;;2.50;;
20861;SDS011;10591;52.532;13.348;2023-03-23T02:52:20;3.55;;;2.85;;
20861;SDS011;10591;52.532;13.348;2023-03-23T02:54:50;4.45;;;2.98;;
20861;SDS011;10591;52.532;13.348;2023-03-23T02:57:22;4.40;;;2.60;;
20861;SDS011;10591;52.532;13.348;2023-03-23T02:59:54;5.45;;;2.80;;
20861;SDS011;10591;52.532;13.348;2023-03-23T03:02:27;3.67;;;2.90;;
20861;SDS011;10591;52.532;13.348;2023-03-23T03:07:48;2.80;;;2.60;;
20861;SDS011;10591;52.532;13.348;2023-03-23T03:10:26;4.10;;;3.70;;
20861;SDS011;10591;52.532;13.348;2023-03-23T03:13:14;3.70;;;3.08;;
20861;SDS011;10591;52.532;13.348;2023-03-23T03:15:50;3.55;;;3.25;;
20861;SDS011;10591;52.532;13.348;2023-03-23T03:18:44;2.83;;;2.62;;
20861;SDS011;10591;52.532;13.348;2023-03-23T03:21:11;4.95;;;3.10;;
20861;SDS011;10591;52.532;13.348;2023-03-23T03:23:43;2.33;;;2.15;;
20861;SDS011;10591;52.532;13.348;2023-03-23T03:26:17;3.22;;;2.92;;
20861;SDS011;10591;52.532;13.348;2023-03-23T03:28:48;3.17;;;2.90;;
20861;SDS011;10591;52.532;13.348;2023-03-23T03:31:20;3.12;;;2.75;;
20861;SDS011;10591;52.532;13.348;2023-03-23T03:33:51;2.92;;;2.50;;
20861;SDS011;10591;52.532;13.348;2023-03-23T03:36:22;2.87;;;2.50;;
20861;SDS011;10591;52.532;13.348;2023-03-23T03:38:53;3.02;;;2.70;;
20861;SDS011;10591;52.532;13.348;2023-03-23T03:41:25;2.85;;;2.65;;
20861;SDS011;10591;52.532;13.348;2023-03-23T03:43:55;3.00;;;2.50;;
20861;SDS011;10591;52.532;13.348;2023-03-23T03:46:24;3.67;;;2.72;;
20861;SDS011;10591;52.532;13.348;2023-03-23T03:48:55;4.80;;;2.85;;
20861;SDS011;10591;52.532;13.348;2023-03-23T03:51:26;2.67;;;2.47;;
20861;SDS011;10591;52.532;13.348;2023-03-23T03:53:57;5.03;;;2.75;;
20861;SDS011;10591;52.532;13.348;2023-03-23T03:56:28;4.53;;;2.83;;
20861;SDS011;10591;52.532;13.348;2023-03-23T03:58:59;3.15;;;2.85;;
20861;SDS011;10591;52.532;13.348;2023-03-23T04:01:29;4.22;;;3.05;;
20861;SDS011;10591;52.532;13.348;2023-03-23T04:03:59;4.00;;;2.90;;
20861;SDS011;10591;52.532;13.348;2023-03-23T04:06:28;3.58;;;2.90;;
20861;SDS011;10591;52.532;13.348;2023-03-23T04:09:00;3.62;;;2.87;;
20861;SDS011;10591;52.532;13.348;2023-03-23T04:11:33;3.05;;;2.80;;
20861;SDS011;10591;52.532;13.348;2023-03-23T04:14:03;3.00;;;2.80;;
20861;SDS011;10591;52.532;13.348;2023-03-23T04:16:33;3.10;;;2.90;;
20861;SDS011;10591;52.532;13.348;2023-03-23T04:19:04;3.60;;;3.05;;
20861;SDS011;10591;52.532;13.348;2023-03-23T04:21:33;3.20;;;2.87;;
20861;SDS011;10591;52.532;13.348;2023-03-23T04:24:03;2.80;;;2.60;;
20861;SDS011;10591;52.532;13.348;2023-03-23T04:26:33;2.98;;;2.47;;
20861;SDS011;10591;52.532;13.348;2023-03-23T04:29:03;3.12;;;2.80;;
20861;SDS011;10591;52.532;13.348;2023-03-23T04:31:34;3.00;;;2.75;;
20861;SDS011;10591;52.532;13.348;2023-03-23T04:34:03;3.05;;;2.75;;
20861;SDS011;10591;52.532;13.348;2023-03-23T04:36:33;3.08;;;2.87;;
20861;SDS011;10591;52.532;13.348;2023-03-23T04:39:04;2.75;;;2.55;;
20861;SDS011;10591;52.532;13.348;2023-03-23T04:41:37;2.70;;;2.45;;
20861;SDS011;10591;52.532;13.348;2023-03-23T04:44:07;2.90;;;2.70;;
20861;SDS011;10591;52.532;13.348;2023-03-23T04:46:39;3.02;;;2.62;;
20861;SDS011;10591;52.532;13.348;2023-03-23T04:49:08;2.90;;;2.70;;
20861;SDS011;10591;52.532;13.348;2023-03-23T04:51:38;3.25;;;2.95;;
20861;SDS011;10591;52.532;13.348;2023-03-23T04:54:08;3.27;;;2.95;;
20861;SDS011;10591;52.532;13.348;2023-03-23T04:56:38;3.50;;;3.08;;
20861;SDS011;10591;52.532;13.348;2023-03-23T04:59:10;3.30;;;3.00;;
20861;SDS011;10591;52.532;13.348;2023-03-23T05:01:43;4.58;;;3.55;;
20861;SDS011;10591;52.532;13.348;2023-03-23T05:04:13;3.92;;;3.08;;
20861;SDS011;10591;52.532;13.348;2023-03-23T05:06:44;4.17;;;3.15;;
20861;SDS011;10591;52.532;13.348;2023-03-23T05:09:15;3.40;;;3.10;;
20861;SDS011;10591;52.532;13.348;2023-03-23T05:11:45;3.77;;;3.17;;
20861;SDS011;10591;52.532;13.348;2023-03-23T05:14:16;4.58;;;2.87;;
20861;SDS011;10591;52.532;13.348;2023-03-23T05:16:45;4.10;;;3.22;;
20861;SDS011;10591;52.532;13.348;2023-03-23T05:19:16;3.60;;;2.98;;
20861;SDS011;10591;52.532;13.348;2023-03-23T05:21:46;3.40;;;3.10;;
20861;SDS011;10591;52.532;13.348;2023-03-23T05:24:17;4.00;;;2.80;;
20861;SDS011;10591;52.532;13.348;2023-03-23T05:26:47;4.62;;;2.95;;
20861;SDS011;10591;52.532;13.348;2023-03-23T05:29:18;5.53;;;3.50;;
20861;SDS011;10591;52.532;13.348;2023-03-23T05:31:48;3.73;;;3.10;;
20861;SDS011;10591;52.532;13.348;2023-03-23T05:34:17;3.80;;;3.42;;
20861;SDS011;10591;52.532;13.348;2023-03-23T05:36:48;6.53;;;3.50;;
20861;SDS011;10591;52.532;13.348;2023-03-23T05:39:22;4.75;;;3.80;;
20861;SDS011;10591;52.532;13.348;2023-03-23T05:41:52;3.77;;;3.47;;
20861;SDS011;10591;52.532;13.348;2023-03-23T05:44:22;4.05;;;3.40;;
20861;SDS011;10591;52.532;13.348;2023-03-23T05:46:52;4.20;;;3.22;;
20861;SDS011;10591;52.532;13.348;2023-03-23T05:49:22;4.12;;;3.40;;
20861;SDS011;10591;52.532;13.348;2023-03-23T05:51:53;5.45;;;3.22;;
20861;SDS011;10591;52.532;13.348;2023-03-23T05:54:23;4.03;;;3.22;;
20861;SDS011;10591;52.532;13.348;2023-03-23T05:56:54;4.50;;;3.37;;
20861;SDS011;10591;52.532;13.348;2023-03-23T05:59:25;4.33;;;3.00;;
20861;SDS011;10591;52.532;13.348;2023-03-23T06:01:55;4.47;;;3.30;;
20861;SDS011;10591;52.532;13.348;2023-03-23T06:04:26;4.50;;;3.13;;
20861;SDS011;10591;52.532;13.348;2023-03-23T06:06:58;3.83;;;3.15;;
20861;SDS011;10591;52.532;13.348;2023-03-23T06:09:31;4.75;;;2.58;;
20861;SDS011;10591;52.532;13.348;2023-03-23T06:12:01;4.30;;;3.23;;
20861;SDS011;10591;52.532;13.348;2023-03-23T06:14:32;6.08;;;3.52;;
20861;SDS011;10591;52.532;13.348;2023-03-23T06:17:03;4.00;;;2.87;;
20861;SDS011;10591;52.532;13.348;2023-03-23T06:19:34;3.45;;;3.00;;
20861;SDS011;10591;52.532;13.348;2023-03-23T06:22:04;3.35;;;2.90;;
20861;SDS011;10591;52.532;13.348;2023-03-23T06:24:34;4.17;;;3.00;;
20861;SDS011;10591;52.532;13.348;2023-03-23T06:27:04;4.78;;;2.83;;
20861;SDS011;10591;52.532;13.348;2023-03-23T06:29:37;4.25;;;3.30;;
20861;SDS011;10591;52.532;13.348;2023-03-23T06:32:09;4.62;;;3.05;;
20861;SDS011;10591;52.532;13.348;2023-03-23T06:34:41;6.58;;;2.90;;
20861;SDS011;10591;52.532;13.348;2023-03-23T06:37:12;4.33;;;2.80;;
20861;SDS011;10591;52.532;13.348;2023-03-23T06:39:43;4.53;;;2.60;;
20861;SDS011;10591;52.532;13.348;2023-03-23T06:42:13;5.15;;;2.85;;
20861;SDS011;10591;52.532;13.348;2023-03-23T06:44:43;4.87;;;2.85;;
20861;SDS011;10591;52.532;13.348;2023-03-23T06:47:13;3.15;;;2.70;;
20861;SDS011;10591;52.532;13.348;2023-03-23T06:49:43;5.05;;;2.87;;
20861;SDS011;10591;52.532;13.348;2023-03-23T06:52:14;3.67;;;2.80;;
20861;SDS011;10591;52.532;13.348;2023-03-23T06:54:44;4.78;;;3.02;;
20861;SDS011;10591;52.532;13.348;2023-03-23T06:57:13;3.70;;;2.98;;
20861;SDS011;10591;52.532;13.348;2023-03-23T06:59:45;6.10;;;3.05;;
20861;SDS011;10591;52.532;13.348;2023-03-23T07:02:15;4.05;;;3.00;;
20861;SDS011;10591;52.532;13.348;2023-03-23T07:04:49;4.25;;;3.00;;
20861;SDS011;10591;52.532;13.348;2023-03-23T07:07:21;3.27;;;2.83;;
20861;SDS011;10591;52.532;13.348;2023-03-23T07:09:52;5.00;;;3.00;;
20861;SDS011;10591;52.532;13.348;2023-03-23T07:12:24;3.25;;;2.62;;
20861;SDS011;10591;52.532;13.348;2023-03-23T07:14:58;5.05;;;2.70;;
20861;SDS011;10591;52.532;13.348;2023-03-23T07:17:27;6.62;;;4.00;;
20861;SDS011;10591;52.532;13.348;2023-03-23T07:19:57;3.30;;;2.90;;
20861;SDS011;10591;52.532;13.348;2023-03-23T07:22:27;4.93;;;3.40;;
20861;SDS011;10591;52.532;13.348;2023-03-23T07:25:21;3.40;;;2.98;;
20861;SDS011;10591;52.532;13.348;2023-03-23T07:27:43;5.30;;;3.05;;
20861;SDS011;10591;52.532;13.348;2023-03-23T07:30:15;4.42;;;3.02;;
20861;SDS011;10591;52.532;13.348;2023-03-23T07:32:47;3.80;;;2.60;;
20861;SDS011;10591;52.532;13.348;2023-03-23T07:35:17;3.50;;;2.60;;
20861;SDS011;10591;52.532;13.348;2023-03-23T07:37:46;4.58;;;2.83;;
20861;SDS011;10591;52.532;13.348;2023-03-23T07:40:17;4.17;;;3.27;;
20861;SDS011;10591;52.532;13.348;2023-03-23T07:42:53;3.95;;;3.05;;
20861;SDS011;10591;52.532;13.348;2023-03-23T07:45:24;2.85;;;2.65;;
20861;SDS011;10591;52.532;13.348;2023-03-23T07:47:57;5.10;;;3.55;;
20861;SDS011;10591;52.532;13.348;2023-03-23T07:50:29;4.08;;;2.80;;
20861;SDS011;10591;52.532;13.348;2023-03-23T07:53:00;4.00;;;2.75;;
20861;SDS011;10591;52.532;13.348;2023-03-23T07:55:29;3.42;;;2.92;;
20861;SDS011;10591;52.532;13.348;2023-03-23T07:57:59;3.85;;;2.90;;
20861;SDS011;10591;52.532;13.348;2023-03-23T08:00:32;4.00;;;2.62;;
20861;SDS011;10591;52.532;13.348;2023-03-23T08:03:04;4.20;;;2.80;;
20861;SDS011;10591;52.532;13.348;2023-03-23T08:05:34;4.40;;;2.62;;
20861;SDS011;10591;52.532;13.348;2023-03-23T08:08:04;3.52;;;3.22;;
20861;SDS011;10591;52.532;13.348;2023-03-23T08:10:35;3.77;;;2.72;;
20861;SDS011;10591;52.532;13.348;2023-03-23T08:13:05;3.98;;;2.83;;
20861;SDS011;10591;52.532;13.348;2023-03-23T08:15:34;4.33;;;3.00;;
20861;SDS011;10591;52.532;13.348;2023-03-23T08:18:05;4.10;;;3.12;;
20861;SDS011;10591;52.532;13.348;2023-03-23T08:20:36;3.27;;;2.62;;
20861;SDS011;10591;52.532;13.348;2023-03-23T08:23:06;4.72;;;2.62;;
20861;SDS011;10591;52.532;13.348;2023-03-23T08:25:37;9.03;;;3.40;;
20861;SDS011;10591;52.532;13.348;2023-03-23T08:28:07;3.80;;;3.15;;
20861;SDS011;10591;52.532;13.348;2023-03-23T08:30:38;3.85;;;2.80;;
20861;SDS011;10591;52.532;13.348;2023-03-23T08:33:08;3.40;;;2.90;;
20861;SDS011;10591;52.532;13.348;2023-03-23T08:35:38;4.28;;;3.12;;
20861;SDS011;10591;52.532;13.348;2023-03-23T08:38:09;3.47;;;3.00;;
20861;SDS011;10591;52.532;13.348;2023-03-23T08:40:40;3.75;;;2.83;;
20861;SDS011;10591;52.532;13.348;2023-03-23T08:43:10;3.05;;;2.72;;
20861;SDS011;10591;52.532;13.348;2023-03-23T08:45:40;5.72;;;3.50;;
20861;SDS011;10591;52.532;13.348;2023-03-23T08:48:10;3.95;;;3.30;;
20861;SDS011;10591;52.532;13.348;2023-03-23T08:50:42;3.87;;;2.98;;
20861;SDS011;10591;52.532;13.348;2023-03-23T08:53:12;3.35;;;3.05;;
20861;SDS011;10591;52.532;13.348;2023-03-23T08:55:43;4.08;;;3.25;;
20861;SDS011;10591;52.532;13.348;2023-03-23T08:58:13;3.85;;;2.87;;
20861;SDS011;10591;52.532;13.348;2023-03-23T09:00:42;3.47;;;3.17;;
20861;SDS011;10591;52.532;13.348;2023-03-23T09:03:15;2.92;;;2.62;;
20861;SDS011;10591;52.532;13.348;2023-03-23T09:05:45;3.33;;;2.83;;
20861;SDS011;10591;52.532;13.348;2023-03-23T09:08:14;3.90;;;2.70;;
20861;SDS011;10591;52.532;13.348;2023-03-23T09:10:45;3.02;;;2.40;;
20861;SDS011;10591;52.532;13.348;2023-03-23T09:13:17;2.83;;;2.62;;
20861;SDS011;10591;52.532;13.348;2023-03-23T09:15:47;3.80;;;2.87;;
20861;SDS011;10591;52.532;13.348;2023-03-23T09:18:19;3.58;;;2.52;;
20861;SDS011;10591;52.532;13.348;2023-03-23T09:20:50;3.72;;;2.50;;
20861;SDS011;10591;52.532;13.348;2023-03-23T09:23:20;3.17;;;2.87;;
20861;SDS011;10591;52.532;13.348;2023-03-23T09:25:50;4.25;;;3.67;;
20861;SDS011;10591;52.532;13.348;2023-03-23T09:28:21;4.58;;;2.67;;
20861;SDS011;10591;52.532;13.348;2023-03-23T09:30:50;3.27;;;2.72;;
20861;SDS011;10591;52.532;13.348;2023-03-23T09:33:24;5.25;;;2.60;;
20861;SDS011;10591;52.532;13.348;2023-03-23T09:35:54;2.72;;;2.40;;
20861;SDS011;10591;52.532;13.348;2023-03-23T09:38:26;3.02;;;2.50;;
20861;SDS011;10591;52.532;13.348;2023-03-23T09:41:03;2.87;;;2.58;;
20861;SDS011;10591;52.532;13.348;2023-03-23T09:46:52;2.77;;;2.30;;
20861;SDS011;10591;52.532;13.348;2023-03-23T09:52:34;3.87;;;2.50;;
20861;SDS011;10591;52.532;13.348;2023-03-23T09:54:59;4.83;;;2.80;;
20861;SDS011;10591;52.532;13.348;2023-03-23T09:57:30;2.67;;;2.37;;
20861;SDS011;10591;52.532;13.348;2023-03-23T10:05:39;3.95;;;2.20;;
20861;SDS011;10591;52.532;13.348;2023-03-23T10:08:11;2.52;;;2.10;;
20861;SDS011;10591;52.532;13.348;2023-03-23T10:11:02;2.85;;;2.50;;
20861;SDS011;10591;52.532;13.348;2023-03-23T10:16:48;2.40;;;2.20;;
20861;SDS011;10591;52.532;13.348;2023-03-23T10:22:11;3.22;;;2.45;;
20861;SDS011;10591;52.532;13.348;2023-03-23T10:24:55;2.22;;;2.02;;
20861;SDS011;10591;52.532;13.348;2023-03-23T10:30:29;2.52;;;1.90;;
20861;SDS011;10591;52.532;13.348;2023-03-23T10:33:02;3.87;;;2.50;;
20861;SDS011;10591;52.532;13.348;2023-03-23T10:35:38;3.10;;;2.47;;
20861;SDS011;10591;52.532;13.348;2023-03-23T10:38:19;2.83;;;1.92;;
20861;SDS011;10591;52.532;13.348;2023-03-23T10:40:52;2.55;;;2.05;;
20861;SDS011;10591;52.532;13.348;2023-03-23T10:43:28;2.27;;;2.08;;
20861;SDS011;10591;52.532;13.348;2023-03-23T10:46:05;2.55;;;1.92;;
20861;SDS011;10591;52.532;13.348;2023-03-23T10:48:32;2.45;;;1.87;;
20861;SDS011;10591;52.532;13.348;2023-03-23T10:51:11;2.52;;;2.10;;
20861;SDS011;10591;52.532;13.348;2023-03-23T10:53:43;3.72;;;2.10;;
20861;SDS011;10591;52.532;13.348;2023-03-23T10:56:20;2.10;;;1.90;;
20861;SDS011;10591;52.532;13.348;2023-03-23T10:58:54;3.10;;;1.92;;
20861;SDS011;10591;52.532;13.348;2023-03-23T11:01:32;4.80;;;2.05;;
20861;SDS011;10591;52.532;13.348;2023-03-23T11:04:10;3.50;;;2.10;;
20861;SDS011;10591;52.532;13.348;2023-03-23T11:06:45;3.08;;;1.80;;
20861;SDS011;10591;52.532;13.348;2023-03-23T11:09:18;2.50;;;2.20;;
20861;SDS011;10591;52.532;13.348;2023-03-23T11:11:55;2.90;;;1.80;;
20861;SDS011;10591;52.532;13.348;2023-03-23T11:14:27;3.67;;;2.35;;
20861;SDS011;10591;52.532;13.348;2023-03-23T11:17:02;4.87;;;2.08;;
20861;SDS011;10591;52.532;13.348;2023-03-23T11:19:35;3.58;;;2.35;;
20861;SDS011;10591;52.532;13.348;2023-03-23T11:22:13;3.80;;;2.30;;
20861;SDS011;10591;52.532;13.348;2023-03-23T11:24:59;3.35;;;2.45;;
20861;SDS011;10591;52.532;13.348;2023-03-23T11:27:27;5.22;;;2.00;;
20861;SDS011;10591;52.532;13.348;2023-03-23T11:30:10;2.72;;;2.10;;
20861;SDS011;10591;52.532;13.348;2023-03-23T11:32:43;2.35;;;1.85;;
20861;SDS011;10591;52.532;13.348;2023-03-23T11:35:25;3.15;;;2.05;;
20861;SDS011;10591;52.532;13.348;2023-03-23T11:37:52;2.15;;;1.95;;
20861;SDS011;10591;52.532;13.348;2023-03-23T11:40:32;2.42;;;2.00;;
20861;SDS011;10591;52.532;13.348;2023-03-23T11:43:09;2.70;;;2.05;;
20861;SDS011;10591;52.532;13.348;2023-03-23T11:48:44;2.92;;;2.05;;
20861;SDS011;10591;52.532;13.348;2023-03-23T11:51:41;1.82;;;1.70;;
20861;SDS011;10591;52.532;13.348;2023-03-23T11:57:05;2.67;;;2.08;;
20861;SDS011;10591;52.532;13.348;2023-03-23T11:59:38;5.42;;;2.27;;
20861;SDS011;10591;52.532;13.348;2023-03-23T12:07:55;2.27;;;2.02;;
20861;SDS011;10591;52.532;13.348;2023-03-23T12:10:35;2.45;;;1.90;;
20861;SDS011;10591;52.532;13.348;2023-03-23T12:13:27;3.62;;;1.82;;
20861;SDS011;10591;52.532;13.348;2023-03-23T12:18:45;2.55;;;2.10;;
20861;SDS011;10591;52.532;13.348;2023-03-23T12:21:36;3.90;;;1.85;;
20861;SDS011;10591;52.532;13.348;2023-03-23T12:27:18;2.90;;;2.00;;
20861;SDS011;10591;52.532;13.348;2023-03-23T12:35:37;2.70;;;2.00;;
20861;SDS011;10591;52.532;13.348;2023-03-23T12:41:35;4.35;;;1.92;;
20861;SDS011;10591;52.532;13.348;2023-03-23T12:44:05;2.75;;;2.00;;
20861;SDS011;10591;52.532;13.348;2023-03-23T12:52:14;3.30;;;2.00;;
20861;SDS011;10591;52.532;13.348;2023-03-23T12:55:01;2.60;;;2.22;;
20861;SDS011;10591;52.532;13.348;2023-03-23T12:57:37;2.30;;;2.10;;
20861;SDS011;10591;52.532;13.348;2023-03-23T13:00:30;2.83;;;2.00;;
20861;SDS011;10591;52.532;13.348;2023-03-23T13:05:52;3.20;;;2.20;;
20861;SDS011;10591;52.532;13.348;2023-03-23T13:08:32;2.60;;;2.10;;
20861;SDS011;10591;52.532;13.348;2023-03-23T13:11:02;2.55;;;2.15;;
20861;SDS011;10591;52.532;13.348;2023-03-23T13:13:51;3.80;;;2.33;;
20861;SDS011;10591;52.532;13.348;2023-03-23T13:16:35;2.98;;;2.33;;
20861;SDS011;10591;52.532;13.348;2023-03-23T13:22:07;2.40;;;2.20;;
20861;SDS011;10591;52.532;13.348;2023-03-23T13:24:46;2.98;;;2.20;;
20861;SDS011;10591;52.532;13.348;2023-03-23T13:27:13;4.10;;;2.52;;
20861;SDS011;10591;52.532;13.348;2023-03-23T13:29:45;3.52;;;2.20;;
20861;SDS011;10591;52.532;13.348;2023-03-23T13:32:18;3.40;;;2.10;;
20861;SDS011;10591;52.532;13.348;2023-03-23T13:34:49;2.72;;;2.05;;
20861;SDS011;10591;52.532;13.348;2023-03-23T13:37:23;2.70;;;2.00;;
20861;SDS011;10591;52.532;13.348;2023-03-23T13:40:40;3.05;;;2.20;;
20861;SDS011;10591;52.532;13.348;2023-03-23T13:42:50;3.17;;;2.10;;
20861;SDS011;10591;52.532;13.348;2023-03-23T13:51:03;2.15;;;1.90;;
20861;SDS011;10591;52.532;13.348;2023-03-23T13:53:47;2.05;;;1.85;;
20861;SDS011;10591;52.532;13.348;2023-03-23T13:56:32;2.40;;;2.10;;
20861;SDS011;10591;52.532;13.348;2023-03-23T13:59:15;2.83;;;2.22;;
20861;SDS011;10591;52.532;13.348;2023-03-23T14:01:48;3.50;;;2.15;;
20861;SDS011;10591;52.532;13.348;2023-03-23T14:04:19;3.52;;;2.30;;
20861;SDS011;10591;52.532;13.348;2023-03-23T14:06:50;4.28;;;2.15;;
20861;SDS011;10591;52.532;13.348;2023-03-23T14:09:36;2.70;;;2.30;;
20861;SDS011;10591;52.532;13.348;2023-03-23T14:12:18;2.80;;;1.90;;
20861;SDS011;10591;52.532;13.348;2023-03-23T14:14:50;4.30;;;1.92;;
20861;SDS011;10591;52.532;13.348;2023-03-23T14:17:23;3.17;;;1.90;;
20861;SDS011;10591;52.532;13.348;2023-03-23T14:19:55;3.90;;;1.80;;
20861;SDS011;10591;52.532;13.348;2023-03-23T14:22:31;4.28;;;2.27;;
20861;SDS011;10591;52.532;13.348;2023-03-23T14:25:08;2.17;;;1.80;;
20861;SDS011;10591;52.532;13.348;2023-03-23T14:27:44;4.03;;;2.08;;
20861;SDS011;10591;52.532;13.348;2023-03-23T14:30:17;2.85;;;1.90;;
20861;SDS011;10591;52.532;13.348;2023-03-23T14:32:48;2.42;;;1.85;;
20861;SDS011;10591;52.532;13.348;2023-03-23T14:35:29;3.10;;;2.10;;
20861;SDS011;10591;52.532;13.348;2023-03-23T14:38:09;2.10;;;1.90;;
20861;SDS011;10591;52.532;13.348;2023-03-23T14:40:42;4.08;;;2.10;;
20861;SDS011;10591;52.532;13.348;2023-03-23T14:43:14;2.17;;;1.98;;
20861;SDS011;10591;52.532;13.348;2023-03-23T14:45:47;4.62;;;2.00;;
20861;SDS011;10591;52.532;13.348;2023-03-23T14:48:19;3.83;;;1.82;;
20861;SDS011;10591;52.532;13.348;2023-03-23T14:50:51;3.30;;;1.98;;
20861;SDS011;10591;52.532;13.348;2023-03-23T14:53:26;2.90;;;1.60;;
20861;SDS011;10591;52.532;13.348;2023-03-23T14:56:14;2.45;;;1.95;;
20861;SDS011;10591;52.532;13.348;2023-03-23T14:58:45;3.83;;;1.95;;
20861;SDS011;10591;52.532;13.348;2023-03-23T15:01:23;2.20;;;1.90;;
20861;SDS011;10591;52.532;13.348;2023-03-23T15:03:58;2.87;;;2.17;;
20861;SDS011;10591;52.532;13.348;2023-03-23T15:06:23;2.62;;;1.92;;
20861;SDS011;10591;52.532;13.348;2023-03-23T15:08:56;2.08;;;1.87;;
20861;SDS011;10591;52.532;13.348;2023-03-23T15:11:28;6.35;;;2.10;;
20861;SDS011;10591;52.532;13.348;2023-03-23T15:14:08;2.50;;;1.80;;
20861;SDS011;10591;52.532;13.348;2023-03-23T15:16:49;3.40;;;2.40;;
20861;SDS011;10591;52.532;13.348;2023-03-23T15:19:33;3.12;;;2.00;;
20861;SDS011;10591;52.532;13.348;2023-03-23T15:22:06;3.65;;;2.22;;
20861;SDS011;10591;52.532;13.348;2023-03-23T15:24:39;3.42;;;2.00;;
20861;SDS011;10591;52.532;13.348;2023-03-23T15:27:17;2.22;;;1.72;;
20861;SDS011;10591;52.532;13.348;2023-03-23T15:29:51;2.98;;;2.22;;
20861;SDS011;10591;52.532;13.348;2023-03-23T15:32:40;3.60;;;1.90;;
20861;SDS011;10591;52.532;13.348;2023-03-23T15:35:15;2.42;;;2.08;;
20861;SDS011;10591;52.532;13.348;2023-03-23T15:37:48;2.05;;;1.75;;
20861;SDS011;10591;52.532;13.348;2023-03-23T15:40:21;2.35;;;2.15;;
20861;SDS011;10591;52.532;13.348;2023-03-23T15:43:14;2.50;;;2.00;;
20861;SDS011;10591;52.532;13.348;2023-03-23T15:45:54;2.67;;;1.77;;
20861;SDS011;10591;52.532;13.348;2023-03-23T15:48:45;3.35;;;1.85;;
20861;SDS011;10591;52.532;13.348;2023-03-23T15:51:26;3.37;;;1.70;;
20861;SDS011;10591;52.532;13.348;2023-03-23T15:53:56;3.00;;;1.80;;
20861;SDS011;10591;52.532;13.348;2023-03-23T15:56:28;2.87;;;1.82;;
20861;SDS011;10591;52.532;13.348;2023-03-23T15:59:00;2.90;;;1.72;;
20861;SDS011;10591;52.532;13.348;2023-03-23T16:01:31;2.85;;;2.05;;
20861;SDS011;10591;52.532;13.348;2023-03-23T16:04:13;3.95;;;1.90;;
20861;SDS011;10591;52.532;13.348;2023-03-23T16:06:46;2.27;;;1.98;;
20861;SDS011;10591;52.532;13.348;2023-03-23T16:09:19;2.60;;;1.70;;
20861;SDS011;10591;52.532;13.348;2023-03-23T16:11:50;2.10;;;1.60;;
20861;SDS011;10591;52.532;13.348;2023-03-23T16:14:20;2.50;;;1.92;;
20861;SDS011;10591;52.532;13.348;2023-03-23T16:16:51;2.22;;;2.00;;
20861;SDS011;10591;52.532;13.348;2023-03-23T16:19:22;4.10;;;1.95;;
20861;SDS011;10591;52.532;13.348;2023-03-23T16:21:52;4.25;;;2.20;;
20861;SDS011;10591;52.532;13.348;2023-03-23T16:24:23;1.95;;;1.50;;
20861;SDS011;10591;52.532;13.348;2023-03-23T16:26:54;2.85;;;1.90;;
20861;SDS011;10591;52.532;13.348;2023-03-23T16:29:25;3.20;;;2.20;;
20861;SDS011;10591;52.532;13.348;2023-03-23T16:31:59;2.70;;;2.25;;